sensor_id;sensor_type;location;lat;lon;timestamp;pressure;altitude;pressure_sealevel;temperature;humidity
64086;BME280;50333;47.436;21.390;2022-10-16T00:01:23;101235.03;;;13.51;65.67
64086;BME280;50333;47.436;21.390;2022-10-16T00:03:52;101234.66;;;13.21;66.78
64086;BME280;50333;47.436;21.390;2022-10-16T00:06:20;101230.09;;;13.65;66.32
64086;BME280;50333;47.436;21.390;2022-10-16T00:08:49;101237.66;;;13.61;65.97
64086;BME280;50333;47.436;21.390;2022-10-16T00:11:27;101234.78;;;13.63;65.83
64086;BME280;50333;47.436;21.390;2022-10-16T00:13:58;101234.53;;;13.64;65.71
64086;BME280;50333;47.436;21.390;2022-10-16T00:16:27;101233.22;;;13.67;65.79
64086;BME280;50333;47.436;21.390;2022-10-16T00:18:56;101238.13;;;13.43;66.28
64086;BME280;50333;47.436;21.390;2022-10-16T00:21:26;101232.09;;;13.37;66.90
64086;BME280;50333;47.436;21.390;2022-10-16T00:24:00;101240.78;;;13.48;66.48
64086;BME280;50333;47.436;21.390;2022-10-16T00:26:30;101231.06;;;13.38;66.52
64086;BME280;50333;47.436;21.390;2022-10-16T00:28:59;101245.25;;;13.57;65.92
64086;BME280;50333;47.436;21.390;2022-10-16T00:31:27;101249.16;;;13.39;66.25
64086;BME280;50333;47.436;21.390;2022-10-16T00:33:55;101244.44;;;13.42;66.18
64086;BME280;50333;47.436;21.390;2022-10-16T00:36:24;101251.53;;;13.51;66.15
64086;BME280;50333;47.436;21.390;2022-10-16T00:38:56;101251.53;;;13.41;66.32
64086;BME280;50333;47.436;21.390;2022-10-16T00:41:33;101265.09;;;13.33;66.46
64086;BME280;50333;47.436;21.390;2022-10-16T00:44:03;101258.66;;;12.98;68.28
64086;BME280;50333;47.436;21.390;2022-10-16T00:46:38;101261.53;;;13.01;68.31
64086;BME280;50333;47.436;21.390;2022-10-16T00:51:39;101266.81;;;12.64;69.47
64086;BME280;50333;47.436;21.390;2022-10-16T00:54:16;101268.19;;;12.72;69.39
64086;BME280;50333;47.436;21.390;2022-10-16T00:56:45;101261.59;;;12.69;68.74
64086;BME280;50333;47.436;21.390;2022-10-16T00:59:23;101261.59;;;12.69;68.66
64086;BME280;50333;47.436;21.390;2022-10-16T01:01:53;101269.12;;;12.98;67.02
64086;BME280;50333;47.436;21.390;2022-10-16T01:04:21;101263.78;;;12.82;67.16
64086;BME280;50333;47.436;21.390;2022-10-16T01:06:51;101267.00;;;12.95;65.70
64086;BME280;50333;47.436;21.390;2022-10-16T01:09:40;101273.66;;;12.70;66.42
64086;BME280;50333;47.436;21.390;2022-10-16T01:12:24;101269.12;;;12.98;65.50
64086;BME280;50333;47.436;21.390;2022-10-16T01:15:04;101265.38;;;12.89;65.87
64086;BME280;50333;47.436;21.390;2022-10-16T01:23:15;101277.41;;;12.85;66.06
64086;BME280;50333;47.436;21.390;2022-10-16T01:32:14;101277.81;;;12.66;66.93
64086;BME280;50333;47.436;21.390;2022-10-16T01:35:02;101273.09;;;12.63;66.89
64086;BME280;50333;47.436;21.390;2022-10-16T01:37:40;101277.75;;;12.56;67.67
64086;BME280;50333;47.436;21.390;2022-10-16T01:40:13;101272.66;;;12.81;66.47
64086;BME280;50333;47.436;21.390;2022-10-16T01:42:48;101284.47;;;12.84;66.41
64086;BME280;50333;47.436;21.390;2022-10-16T01:45:19;101282.38;;;12.86;65.99
64086;BME280;50333;47.436;21.390;2022-10-16T01:47:49;101275.81;;;12.78;66.04
64086;BME280;50333;47.436;21.390;2022-10-16T01:50:20;101275.09;;;12.93;65.47
64086;BME280;50333;47.436;21.390;2022-10-16T01:52:51;101284.78;;;12.55;66.69
64086;BME280;50333;47.436;21.390;2022-10-16T01:55:26;101285.13;;;12.64;67.20
64086;BME280;50333;47.436;21.390;2022-10-16T01:57:58;101280.25;;;12.78;66.51
64086;BME280;50333;47.436;21.390;2022-10-16T02:00:27;101277.59;;;12.35;68.12
64086;BME280;50333;47.436;21.390;2022-10-16T02:02:56;101281.75;;;12.69;66.63
64086;BME280;50333;47.436;21.390;2022-10-16T02:05:32;101282.38;;;12.86;65.81
64086;BME280;50333;47.436;21.390;2022-10-16T02:08:01;101281.44;;;13.08;64.71
64086;BME280;50333;47.436;21.390;2022-10-16T02:10:34;101286.62;;;12.97;65.18
64086;BME280;50333;47.436;21.390;2022-10-16T02:13:09;101291.97;;;12.70;65.94
64086;BME280;50333;47.436;21.390;2022-10-16T02:15:38;101284.75;;;12.88;65.52
64086;BME280;50333;47.436;21.390;2022-10-16T02:18:06;101295.44;;;12.81;65.51
64086;BME280;50333;47.436;21.390;2022-10-16T02:20:59;101293.38;;;12.88;64.93
64086;BME280;50333;47.436;21.390;2022-10-16T02:23:45;101293.12;;;12.90;64.54
64086;BME280;50333;47.436;21.390;2022-10-16T02:26:23;101292.44;;;12.62;65.29
64086;BME280;50333;47.436;21.390;2022-10-16T02:28:59;101301.84;;;12.58;65.31
64086;BME280;50333;47.436;21.390;2022-10-16T02:31:32;101301.53;;;12.54;65.85
64086;BME280;50333;47.436;21.390;2022-10-16T02:34:03;101308.25;;;12.77;64.73
64086;BME280;50333;47.436;21.390;2022-10-16T02:36:34;101311.19;;;12.54;65.57
64086;BME280;50333;47.436;21.390;2022-10-16T02:39:03;101313.56;;;12.93;64.35
64086;BME280;50333;47.436;21.390;2022-10-16T02:41:32;101318.72;;;12.77;64.58
64086;BME280;50333;47.436;21.390;2022-10-16T02:44:00;101324.38;;;12.64;64.90
64086;BME280;50333;47.436;21.390;2022-10-16T02:46:28;101325.78;;;12.12;65.92
64086;BME280;50333;47.436;21.390;2022-10-16T02:48:55;101331.25;;;12.11;66.50
64086;BME280;50333;47.436;21.390;2022-10-16T02:51:23;101331.22;;;12.70;64.57
64086;BME280;50333;47.436;21.390;2022-10-16T02:53:52;101333.13;;;12.48;64.83
64086;BME280;50333;47.436;21.390;2022-10-16T02:56:20;101324.41;;;12.69;63.67
64086;BME280;50333;47.436;21.390;2022-10-16T02:58:48;101331.72;;;12.67;64.00
64086;BME280;50333;47.436;21.390;2022-10-16T03:01:16;101331.72;;;12.67;63.94
64086;BME280;50333;47.436;21.390;2022-10-16T03:03:44;101330.06;;;12.56;64.80
64086;BME280;50333;47.436;21.390;2022-10-16T03:06:11;101334.16;;;12.47;65.41
64086;BME280;50333;47.436;21.390;2022-10-16T03:08:39;101331.47;;;12.36;65.69
64086;BME280;50333;47.436;21.390;2022-10-16T03:11:07;101337.31;;;12.43;65.59
64086;BME280;50333;47.436;21.390;2022-10-16T03:13:35;101331.56;;;12.47;65.48
64086;BME280;50333;47.436;21.390;2022-10-16T03:16:03;101338.63;;;12.46;65.46
64086;BME280;50333;47.436;21.390;2022-10-16T03:18:31;101335.13;;;12.35;65.84
64086;BME280;50333;47.436;21.390;2022-10-16T03:20:58;101335.28;;;12.23;66.25
64086;BME280;50333;47.436;21.390;2022-10-16T03:23:27;101335.53;;;12.22;65.97
64086;BME280;50333;47.436;21.390;2022-10-16T03:26:00;101337.84;;;12.18;66.14
64086;BME280;50333;47.436;21.390;2022-10-16T03:28:28;101338.69;;;11.97;66.83
64086;BME280;50333;47.436;21.390;2022-10-16T03:30:55;101339.44;;;12.19;66.09
64086;BME280;50333;47.436;21.390;2022-10-16T03:33:23;101339.81;;;12.33;65.80
64086;BME280;50333;47.436;21.390;2022-10-16T03:35:52;101342.16;;;12.35;65.45
64086;BME280;50333;47.436;21.390;2022-10-16T03:38:21;101349.50;;;12.05;66.09
64086;BME280;50333;47.436;21.390;2022-10-16T03:40:48;101353.81;;;12.22;65.72
64086;BME280;50333;47.436;21.390;2022-10-16T03:43:16;101353.00;;;11.50;68.02
64086;BME280;50333;47.436;21.390;2022-10-16T03:45:44;101351.91;;;11.90;67.21
64086;BME280;50333;47.436;21.390;2022-10-16T03:48:11;101362.25;;;11.80;67.37
64086;BME280;50333;47.436;21.390;2022-10-16T03:50:39;101365.75;;;11.46;68.01
64086;BME280;50333;47.436;21.390;2022-10-16T03:53:07;101366.47;;;11.86;66.85
64086;BME280;50333;47.436;21.390;2022-10-16T03:55:35;101363.41;;;11.67;67.02
64086;BME280;50333;47.436;21.390;2022-10-16T03:58:03;101369.22;;;11.52;67.55
64086;BME280;50333;47.436;21.390;2022-10-16T04:00:30;101368.47;;;11.35;68.31
64086;BME280;50333;47.436;21.390;2022-10-16T04:02:58;101367.81;;;11.44;68.22
64086;BME280;50333;47.436;21.390;2022-10-16T04:05:26;101356.34;;;11.67;67.10
64086;BME280;50333;47.436;21.390;2022-10-16T04:07:54;101367.50;;;12.02;65.65
64086;BME280;50333;47.436;21.390;2022-10-16T04:10:22;101376.94;;;12.08;66.03
64086;BME280;50333;47.436;21.390;2022-10-16T04:12:50;101377.25;;;12.12;65.69
64086;BME280;50333;47.436;21.390;2022-10-16T04:15:18;101372.22;;;11.83;65.89
64086;BME280;50333;47.436;21.390;2022-10-16T04:17:46;101375.75;;;11.55;66.95
64086;BME280;50333;47.436;21.390;2022-10-16T04:20:14;101372.53;;;11.47;67.18
64086;BME280;50333;47.436;21.390;2022-10-16T04:22:42;101368.00;;;11.82;66.00
64086;BME280;50333;47.436;21.390;2022-10-16T04:25:11;101381.19;;;11.70;66.78
64086;BME280;50333;47.436;21.390;2022-10-16T04:27:39;101376.59;;;11.99;65.57
64086;BME280;50333;47.436;21.390;2022-10-16T04:30:12;101383.25;;;11.90;65.94
64086;BME280;50333;47.436;21.390;2022-10-16T04:32:40;101382.13;;;12.03;65.10
64086;BME280;50333;47.436;21.390;2022-10-16T04:35:08;101377.13;;;12.01;65.28
64086;BME280;50333;47.436;21.390;2022-10-16T04:37:36;101384.00;;;12.07;65.05
64086;BME280;50333;47.436;21.390;2022-10-16T04:40:04;101376.06;;;11.97;65.26
64086;BME280;50333;47.436;21.390;2022-10-16T04:42:32;101383.66;;;11.99;65.29
64086;BME280;50333;47.436;21.390;2022-10-16T04:45:00;101373.56;;;12.07;64.99
64086;BME280;50333;47.436;21.390;2022-10-16T04:47:27;101371.12;;;12.01;65.25
64086;BME280;50333;47.436;21.390;2022-10-16T04:49:56;101380.19;;;11.93;65.83
64086;BME280;50333;47.436;21.390;2022-10-16T04:52:25;101377.59;;;11.93;65.89
64086;BME280;50333;47.436;21.390;2022-10-16T04:54:53;101379.53;;;11.86;66.18
64086;BME280;50333;47.436;21.390;2022-10-16T04:57:21;101376.09;;;11.80;66.44
64086;BME280;50333;47.436;21.390;2022-10-16T04:59:49;101382.66;;;11.83;66.26
64086;BME280;50333;47.436;21.390;2022-10-16T05:02:17;101379.37;;;11.70;66.34
64086;BME280;50333;47.436;21.390;2022-10-16T05:04:44;101377.59;;;11.54;67.20
64086;BME280;50333;47.436;21.390;2022-10-16T05:07:12;101377.91;;;11.80;66.35
64086;BME280;50333;47.436;21.390;2022-10-16T05:09:40;101379.25;;;11.82;66.39
64086;BME280;50333;47.436;21.390;2022-10-16T05:12:07;101387.47;;;11.91;66.32
64086;BME280;50333;47.436;21.390;2022-10-16T05:14:35;101382.66;;;11.83;66.66
64086;BME280;50333;47.436;21.390;2022-10-16T05:17:03;101387.88;;;11.83;66.79
64086;BME280;50333;47.436;21.390;2022-10-16T05:19:31;101389.50;;;11.89;66.55
64086;BME280;50333;47.436;21.390;2022-10-16T05:21:59;101397.44;;;11.94;66.50
64086;BME280;50333;47.436;21.390;2022-10-16T05:24:26;101405.84;;;11.57;67.38
64086;BME280;50333;47.436;21.390;2022-10-16T05:26:55;101403.31;;;11.62;67.60
64086;BME280;50333;47.436;21.390;2022-10-16T05:29:23;101405.63;;;11.81;67.04
64086;BME280;50333;47.436;21.390;2022-10-16T05:31:52;101416.56;;;11.78;67.51
64086;BME280;50333;47.436;21.390;2022-10-16T05:34:20;101415.44;;;11.74;67.88
64086;BME280;50333;47.436;21.390;2022-10-16T05:36:48;101417.31;;;11.95;67.24
64086;BME280;50333;47.436;21.390;2022-10-16T05:39:16;101413.84;;;12.12;66.90
64086;BME280;50333;47.436;21.390;2022-10-16T05:41:44;101413.28;;;12.10;66.96
64086;BME280;50333;47.436;21.390;2022-10-16T05:44:12;101421.75;;;12.17;67.04
64086;BME280;50333;47.436;21.390;2022-10-16T05:46:39;101427.44;;;12.14;67.32
64086;BME280;50333;47.436;21.390;2022-10-16T05:49:07;101433.25;;;12.16;67.70
64086;BME280;50333;47.436;21.390;2022-10-16T05:51:35;101439.38;;;12.04;68.19
64086;BME280;50333;47.436;21.390;2022-10-16T05:54:03;101439.19;;;12.11;68.32
64086;BME280;50333;47.436;21.390;2022-10-16T05:56:30;101451.28;;;11.95;69.29
64086;BME280;50333;47.436;21.390;2022-10-16T05:58:58;101448.56;;;12.07;69.37
64086;BME280;50333;47.436;21.390;2022-10-16T06:01:26;101451.47;;;12.11;69.19
64086;BME280;50333;47.436;21.390;2022-10-16T06:03:54;101455.19;;;12.15;69.20
64086;BME280;50333;47.436;21.390;2022-10-16T06:06:23;101448.59;;;12.34;69.35
64086;BME280;50333;47.436;21.390;2022-10-16T06:08:55;101457.19;;;12.57;68.95
64086;BME280;50333;47.436;21.390;2022-10-16T06:11:27;101459.53;;;12.31;70.17
64086;BME280;50333;47.436;21.390;2022-10-16T06:13:58;101466.16;;;12.39;70.47
64086;BME280;50333;47.436;21.390;2022-10-16T06:16:26;101463.16;;;12.79;68.89
64086;BME280;50333;47.436;21.390;2022-10-16T06:18:55;101465.88;;;12.90;69.11
64086;BME280;50333;47.436;21.390;2022-10-16T06:21:24;101469.59;;;12.67;69.80
64086;BME280;50333;47.436;21.390;2022-10-16T06:23:54;101465.31;;;13.15;67.77
64086;BME280;50333;47.436;21.390;2022-10-16T06:26:24;101476.12;;;12.96;69.02
64086;BME280;50333;47.436;21.390;2022-10-16T06:28:54;101474.16;;;12.81;69.56
64086;BME280;50333;47.436;21.390;2022-10-16T06:31:23;101474.59;;;13.00;68.23
64086;BME280;50333;47.436;21.390;2022-10-16T06:33:54;101478.91;;;12.85;69.24
64086;BME280;50333;47.436;21.390;2022-10-16T06:36:23;101484.91;;;13.45;67.06
64086;BME280;50333;47.436;21.390;2022-10-16T06:38:52;101488.44;;;12.69;69.35
64086;BME280;50333;47.436;21.390;2022-10-16T06:41:21;101496.38;;;13.06;69.62
64086;BME280;50333;47.436;21.390;2022-10-16T06:43:50;101491.28;;;13.59;67.85
64086;BME280;50333;47.436;21.390;2022-10-16T06:46:20;101493.34;;;13.52;67.83
64086;BME280;50333;47.436;21.390;2022-10-16T06:48:49;101503.53;;;13.48;67.95
64086;BME280;50333;47.436;21.390;2022-10-16T06:51:22;101497.03;;;13.99;66.51
64086;BME280;50333;47.436;21.390;2022-10-16T06:53:52;101500.22;;;14.11;65.78
64086;BME280;50333;47.436;21.390;2022-10-16T06:56:31;101502.84;;;14.16;65.86
64086;BME280;50333;47.436;21.390;2022-10-16T06:58:59;101505.19;;;14.18;65.40
64086;BME280;50333;47.436;21.390;2022-10-16T07:01:27;101507.63;;;14.34;64.98
64086;BME280;50333;47.436;21.390;2022-10-16T07:03:55;101510.41;;;13.60;67.51
64086;BME280;50333;47.436;21.390;2022-10-16T07:06:25;101504.44;;;14.22;66.05
64086;BME280;50333;47.436;21.390;2022-10-16T07:08:53;101513.97;;;14.44;65.32
64086;BME280;50333;47.436;21.390;2022-10-16T07:11:23;101508.03;;;14.79;63.64
64086;BME280;50333;47.436;21.390;2022-10-16T07:13:51;101513.97;;;14.44;64.14
64086;BME280;50333;47.436;21.390;2022-10-16T07:16:26;101509.88;;;14.84;64.41
64086;BME280;50333;47.436;21.390;2022-10-16T07:18:55;101511.59;;;14.42;66.30
64086;BME280;50333;47.436;21.390;2022-10-16T07:21:29;101514.38;;;15.24;63.18
64086;BME280;50333;47.436;21.390;2022-10-16T07:23:59;101515.94;;;14.89;64.99
64086;BME280;50333;47.436;21.390;2022-10-16T07:26:30;101513.84;;;15.22;63.46
64086;BME280;50333;47.436;21.390;2022-10-16T07:28:58;101517.78;;;15.40;62.74
64086;BME280;50333;47.436;21.390;2022-10-16T07:31:26;101524.09;;;15.14;64.20
64086;BME280;50333;47.436;21.390;2022-10-16T07:33:55;101524.56;;;15.67;62.18
64086;BME280;50333;47.436;21.390;2022-10-16T07:36:22;101529.88;;;15.16;63.93
64086;BME280;50333;47.436;21.390;2022-10-16T07:38:50;101525.63;;;15.87;61.74
64086;BME280;50333;47.436;21.390;2022-10-16T07:41:23;101532.59;;;16.17;60.33
64086;BME280;50333;47.436;21.390;2022-10-16T07:43:53;101527.53;;;16.36;60.45
64086;BME280;50333;47.436;21.390;2022-10-16T07:46:22;101530.25;;;16.65;59.33
64086;BME280;50333;47.436;21.390;2022-10-16T07:48:50;101534.16;;;16.73;58.92
64086;BME280;50333;47.436;21.390;2022-10-16T07:51:20;101526.81;;;16.65;58.34
64086;BME280;50333;47.436;21.390;2022-10-16T07:53:49;101523.75;;;16.97;57.38
64086;BME280;50333;47.436;21.390;2022-10-16T07:56:20;101533.28;;;16.93;59.66
64086;BME280;50333;47.436;21.390;2022-10-16T07:58:50;101523.75;;;16.52;58.18
64086;BME280;50333;47.436;21.390;2022-10-16T08:01:19;101524.47;;;17.08;57.63
64086;BME280;50333;47.436;21.390;2022-10-16T08:03:49;101528.94;;;17.42;55.72
64086;BME280;50333;47.436;21.390;2022-10-16T08:06:19;101535.06;;;17.61;55.67
64086;BME280;50333;47.436;21.390;2022-10-16T08:08:53;101528.56;;;16.90;56.78
64086;BME280;50333;47.436;21.390;2022-10-16T08:11:24;101538.66;;;17.12;57.15
64086;BME280;50333;47.436;21.390;2022-10-16T08:13:52;101538.94;;;17.69;53.54
64086;BME280;50333;47.436;21.390;2022-10-16T08:16:20;101533.56;;;17.21;53.80
64086;BME280;50333;47.436;21.390;2022-10-16T08:18:48;101531.44;;;18.05;53.56
64086;BME280;50333;47.436;21.390;2022-10-16T08:21:22;101538.06;;;17.79;51.56
64086;BME280;50333;47.436;21.390;2022-10-16T08:23:53;101539.03;;;17.88;51.60
64086;BME280;50333;47.436;21.390;2022-10-16T08:26:26;101546.81;;;18.22;50.87
64086;BME280;50333;47.436;21.390;2022-10-16T08:28:55;101550.78;;;18.20;51.54
64086;BME280;50333;47.436;21.390;2022-10-16T08:31:23;101547.56;;;18.66;50.27
64086;BME280;50333;47.436;21.390;2022-10-16T08:33:51;101556.34;;;18.61;50.59
64086;BME280;50333;47.436;21.390;2022-10-16T08:36:20;101540.50;;;18.99;49.28
64086;BME280;50333;47.436;21.390;2022-10-16T08:38:49;101540.41;;;19.05;48.04
64086;BME280;50333;47.436;21.390;2022-10-16T08:41:37;101556.09;;;19.15;48.14
64086;BME280;50333;47.436;21.390;2022-10-16T08:44:25;101543.91;;;19.00;47.16
64086;BME280;50333;47.436;21.390;2022-10-16T08:49:26;101549.19;;;19.33;44.40
64086;BME280;50333;47.436;21.390;2022-10-16T08:51:55;101551.63;;;19.29;45.36
64086;BME280;50333;47.436;21.390;2022-10-16T08:55:04;101550.94;;;19.70;44.59
64086;BME280;50333;47.436;21.390;2022-10-16T08:57:25;101552.25;;;19.40;43.74
64086;BME280;50333;47.436;21.390;2022-10-16T08:59:59;101542.13;;;20.03;43.11
64086;BME280;50333;47.436;21.390;2022-10-16T09:05:11;101549.22;;;20.44;41.33
64086;BME280;50333;47.436;21.390;2022-10-16T09:10:56;101552.00;;;20.61;42.25
64086;BME280;50333;47.436;21.390;2022-10-16T09:13:45;101560.25;;;20.74;40.60
64086;BME280;50333;47.436;21.390;2022-10-16T09:21:37;101564.84;;;20.31;40.96
64086;BME280;50333;47.436;21.390;2022-10-16T09:24:14;101566.13;;;20.70;41.27
64086;BME280;50333;47.436;21.390;2022-10-16T09:26:43;101569.94;;;20.42;41.57
64086;BME280;50333;47.436;21.390;2022-10-16T09:29:18;101569.69;;;20.02;40.99
64086;BME280;50333;47.436;21.390;2022-10-16T09:31:47;101561.78;;;20.38;41.30
64086;BME280;50333;47.436;21.390;2022-10-16T09:34:34;101565.25;;;20.11;42.14
64086;BME280;50333;47.436;21.390;2022-10-16T09:37:08;101563.44;;;20.48;41.92
64086;BME280;50333;47.436;21.390;2022-10-16T09:39:45;101556.75;;;20.64;40.76
64086;BME280;50333;47.436;21.390;2022-10-16T09:42:18;101557.00;;;20.99;41.25
64086;BME280;50333;47.436;21.390;2022-10-16T09:44:49;101561.22;;;21.00;41.63
64086;BME280;50333;47.436;21.390;2022-10-16T09:47:21;101555.84;;;20.91;41.04
64086;BME280;50333;47.436;21.390;2022-10-16T09:49:59;101554.47;;;20.94;39.45
64086;BME280;50333;47.436;21.390;2022-10-16T09:52:30;101555.63;;;21.33;40.35
64086;BME280;50333;47.436;21.390;2022-10-16T09:55:00;101554.38;;;22.02;39.87
64086;BME280;50333;47.436;21.390;2022-10-16T09:57:28;101561.25;;;22.12;38.63
64086;BME280;50333;47.436;21.390;2022-10-16T09:59:58;101560.31;;;21.99;38.00
64086;BME280;50333;47.436;21.390;2022-10-16T10:02:28;101558.41;;;21.99;38.50
64086;BME280;50333;47.436;21.390;2022-10-16T10:04:57;101561.56;;;21.93;39.00
64086;BME280;50333;47.436;21.390;2022-10-16T10:07:31;101563.16;;;21.62;39.38
64086;BME280;50333;47.436;21.390;2022-10-16T10:10:04;101558.22;;;21.78;38.99
64086;BME280;50333;47.436;21.390;2022-10-16T10:12:33;101566.78;;;21.44;39.26
64086;BME280;50333;47.436;21.390;2022-10-16T10:17:32;101564.22;;;21.53;39.15
64086;BME280;50333;47.436;21.390;2022-10-16T10:20:30;101563.25;;;21.26;40.47
64086;BME280;50333;47.436;21.390;2022-10-16T10:23:15;101569.31;;;21.49;40.18
64086;BME280;50333;47.436;21.390;2022-10-16T10:31:03;101562.37;;;22.11;39.80
64086;BME280;50333;47.436;21.390;2022-10-16T10:44:42;101562.44;;;22.72;36.76
64086;BME280;50333;47.436;21.390;2022-10-16T11:01:12;101553.94;;;22.09;38.30
64086;BME280;50333;47.436;21.390;2022-10-16T11:06:29;101556.72;;;22.03;37.98
64086;BME280;50333;47.436;21.390;2022-10-16T11:09:04;101552.19;;;22.04;37.78
64086;BME280;50333;47.436;21.390;2022-10-16T11:14:24;101553.47;;;21.66;38.43
64086;BME280;50333;47.436;21.390;2022-10-16T11:17:05;101548.13;;;21.58;38.54
64086;BME280;50333;47.436;21.390;2022-10-16T11:19:44;101539.59;;;22.27;37.81
64086;BME280;50333;47.436;21.390;2022-10-16T11:22:20;101539.34;;;21.89;38.57
64086;BME280;50333;47.436;21.390;2022-10-16T11:27:36;101541.28;;;22.23;37.92
64086;BME280;50333;47.436;21.390;2022-10-16T11:30:24;101538.50;;;21.08;38.93
64086;BME280;50333;47.436;21.390;2022-10-16T11:33:37;101541.87;;;22.11;37.95
64086;BME280;50333;47.436;21.390;2022-10-16T11:50:01;101533.56;;;21.15;39.30
64086;BME280;50333;47.436;21.390;2022-10-16T11:52:52;101529.84;;;21.48;38.78
64086;BME280;50333;47.436;21.390;2022-10-16T11:55:29;101522.38;;;21.50;38.69
64086;BME280;50333;47.436;21.390;2022-10-16T11:58:06;101529.59;;;21.04;40.54
64086;BME280;50333;47.436;21.390;2022-10-16T12:00:57;101525.09;;;21.76;38.35
64086;BME280;50333;47.436;21.390;2022-10-16T12:08:53;101526.16;;;20.44;41.13
64086;BME280;50333;47.436;21.390;2022-10-16T12:16:55;101509.81;;;21.10;40.41
64086;BME280;50333;47.436;21.390;2022-10-16T12:19:28;101505.63;;;21.18;38.85
64086;BME280;50333;47.436;21.390;2022-10-16T12:21:58;101509.66;;;20.84;40.73
64086;BME280;50333;47.436;21.390;2022-10-16T12:24:38;101519.19;;;20.85;40.74
64086;BME280;50333;47.436;21.390;2022-10-16T12:29:56;101516.84;;;20.83;40.41
64086;BME280;50333;47.436;21.390;2022-10-16T12:32:27;101520.31;;;20.93;40.13
64086;BME280;50333;47.436;21.390;2022-10-16T12:35:25;101524.25;;;20.73;40.33
64086;BME280;50333;47.436;21.390;2022-10-16T12:38:04;101524.47;;;20.62;40.45
64086;BME280;50333;47.436;21.390;2022-10-16T12:40:35;101515.97;;;20.97;40.44
64086;BME280;50333;47.436;21.390;2022-10-16T12:46:21;101524.69;;;21.20;39.68
64086;BME280;50333;47.436;21.390;2022-10-16T12:48:50;101517.53;;;20.98;40.11
64086;BME280;50333;47.436;21.390;2022-10-16T12:51:35;101517.66;;;20.93;39.72
64086;BME280;50333;47.436;21.390;2022-10-16T12:57:34;101518.16;;;21.26;39.37
64086;BME280;50333;47.436;21.390;2022-10-16T13:00:39;101506.78;;;21.57;37.80
64086;BME280;50333;47.436;21.390;2022-10-16T13:20:11;101510.06;;;21.31;38.69
64086;BME280;50333;47.436;21.390;2022-10-16T13:28:13;101513.81;;;20.99;40.81
64086;BME280;50333;47.436;21.390;2022-10-16T13:30:51;101508.97;;;21.55;39.54
64086;BME280;50333;47.436;21.390;2022-10-16T13:33:46;101508.72;;;21.42;40.58
64086;BME280;50333;47.436;21.390;2022-10-16T13:36:21;101507.38;;;21.54;39.86
64086;BME280;50333;47.436;21.390;2022-10-16T13:39:00;101510.06;;;21.62;39.05
64086;BME280;50333;47.436;21.390;2022-10-16T13:41:29;101514.69;;;21.17;40.71
64086;BME280;50333;47.436;21.390;2022-10-16T13:43:56;101516.19;;;21.72;39.15
64086;BME280;50333;47.436;21.390;2022-10-16T13:46:25;101512.84;;;20.95;40.61
64086;BME280;50333;47.436;21.390;2022-10-16T13:49:02;101519.19;;;20.85;40.68
64086;BME280;50333;47.436;21.390;2022-10-16T13:51:32;101523.38;;;21.08;41.00
64086;BME280;50333;47.436;21.390;2022-10-16T13:54:00;101511.84;;;21.44;39.59
64086;BME280;50333;47.436;21.390;2022-10-16T13:56:30;101517.12;;;21.36;39.24
64086;BME280;50333;47.436;21.390;2022-10-16T13:59:04;101514.41;;;21.50;39.94
64086;BME280;50333;47.436;21.390;2022-10-16T14:01:41;101516.16;;;21.32;39.22
64086;BME280;50333;47.436;21.390;2022-10-16T14:04:12;101518.00;;;21.22;39.93
64086;BME280;50333;47.436;21.390;2022-10-16T14:06:42;101519.72;;;20.96;40.82
64086;BME280;50333;47.436;21.390;2022-10-16T14:09:24;101522.91;;;21.06;40.47
64086;BME280;50333;47.436;21.390;2022-10-16T14:12:11;101520.66;;;21.00;41.06
64086;BME280;50333;47.436;21.390;2022-10-16T14:14:42;101519.66;;;21.09;40.38
64086;BME280;50333;47.436;21.390;2022-10-16T14:17:20;101519.59;;;21.01;40.06
64086;BME280;50333;47.436;21.390;2022-10-16T14:19:51;101527.19;;;20.94;40.42
64086;BME280;50333;47.436;21.390;2022-10-16T14:22:35;101528.75;;;20.58;41.35
64086;BME280;50333;47.436;21.390;2022-10-16T14:30:58;101535.63;;;20.73;41.26
64086;BME280;50333;47.436;21.390;2022-10-16T14:38:38;101540.62;;;20.75;40.92
64086;BME280;50333;47.436;21.390;2022-10-16T14:41:06;101544.75;;;20.67;41.15
64086;BME280;50333;47.436;21.390;2022-10-16T14:43:39;101549.00;;;20.68;41.44
64086;BME280;50333;47.436;21.390;2022-10-16T14:46:13;101547.53;;;20.48;41.56
64086;BME280;50333;47.436;21.390;2022-10-16T14:48:42;101552.31;;;20.74;41.21
64086;BME280;50333;47.436;21.390;2022-10-16T14:51:15;101555.66;;;20.88;41.46
64086;BME280;50333;47.436;21.390;2022-10-16T14:53:44;101546.44;;;20.63;41.88
64086;BME280;50333;47.436;21.390;2022-10-16T14:56:18;101558.03;;;20.53;41.59
64086;BME280;50333;47.436;21.390;2022-10-16T14:58:48;101551.75;;;20.63;41.89
64086;BME280;50333;47.436;21.390;2022-10-16T15:01:17;101556.94;;;20.54;41.51
64086;BME280;50333;47.436;21.390;2022-10-16T15:03:45;101550.75;;;20.73;41.43
64086;BME280;50333;47.436;21.390;2022-10-16T15:06:14;101560.66;;;20.53;41.15
64086;BME280;50333;47.436;21.390;2022-10-16T15:08:43;101554.03;;;20.42;41.78
64086;BME280;50333;47.436;21.390;2022-10-16T15:11:18;101554.84;;;20.28;43.44
64086;BME280;50333;47.436;21.390;2022-10-16T15:13:47;101557.75;;;20.41;43.19
64086;BME280;50333;47.436;21.390;2022-10-16T15:16:15;101562.91;;;20.60;42.04
64086;BME280;50333;47.436;21.390;2022-10-16T15:18:44;101570.34;;;20.21;43.31
64086;BME280;50333;47.436;21.390;2022-10-16T15:23:50;101572.31;;;20.15;45.13